KMYJ

Mexico Memorial Airport

Mexico, Missouri, USA
METAR KMYJ 190355Z AUTO 00000KT 7SM CLR 20/20 A2994 RMK AO2
Observed Flight Rules
Sep-19 @ 03:55 UTC (2 hours ago) Visual Flight Rules
Visibility Clouds
7 miles
  • Clear skies
Temperatures Readings
Current 20°C / 68°F
Dewpoint 20°C / 68°F
Humidity 100%
Altimeter 29.94" Hg
Pressure 1014 hPa
Elevation 251
METAR KMYJ 190355Z AUTO 00000KT 7SM CLR 20/20 A2994 RMK AO2
Observed Flight Rules
Sep-19 @ 03:55 UTC
(2 hours ago)
VFR
Clouds
  • Clear skies
Temperature Dewpoint
20°C / 68°F 20°C / 68°F
Humidity Altimeter Pressure
100% 29.94" Hg 1014 hPa